Time;durP1;ratioP1;P1;durP2;ratioP2;P2;SDS_P1;SDS_P2;PMS_P1;PMS_P2;Temp;Humidity;BMP_temperature;BMP_pressure;BME280_temperature;BME280_humidity;BME280_pressure;Samples;Min_cycle;Max_cycle;Signal;HPM_P1;HPM_P2
2022/09/13 00:00:11;;;;;;;41.00;27.02;;;;;;;;;;5071323;28;20505;-72
2022/09/13 00:02:37;;;;;;;36.25;25.42;;;;;;;;;;5071059;28;20039;-72
2022/09/13 00:05:04;;;;;;;40.72;26.60;;;;;;;;;;5070980;28;20044;-72
2022/09/13 00:07:30;;;;;;;42.97;26.92;;;;;;;;;;5054314;28;20076;-73
2022/09/13 00:09:56;;;;;;;38.67;26.40;;;;;;;;;;5070582;28;20041;-72
2022/09/13 00:12:22;;;;;;;39.35;26.55;;;;;;;;;;5071016;28;20041;-72
2022/09/13 00:14:48;;;;;;;34.70;23.10;;;;;;;;;;5073185;28;20041;-72
2022/09/13 00:17:14;;;;;;;44.83;27.52;;;;;;;;;;5070981;28;20532;-72
2022/09/13 00:19:40;;;;;;;40.42;26.60;;;;;;;;;;5071041;28;20405;-72
2022/09/13 00:22:06;;;;;;;38.08;24.85;;;;;;;;;;5058266;28;20033;-72
2022/09/13 00:24:32;;;;;;;37.65;25.02;;;;;;;;;;5071089;28;20178;-73
2022/09/13 00:26:59;;;;;;;38.55;26.02;;;;;;;;;;5069843;28;20047;-73
2022/09/13 00:29:26;;;;;;;38.30;25.98;;;;;;;;;;5063290;28;20040;-72
2022/09/13 00:31:52;;;;;;;40.55;26.52;;;;;;;;;;5070029;28;20044;-72
2022/09/13 00:34:19;;;;;;;43.60;26.10;;;;;;;;;;5054173;28;20037;-72
2022/09/13 00:36:45;;;;;;;34.83;24.45;;;;;;;;;;5070264;28;20508;-72
2022/09/13 00:39:11;;;;;;;39.67;25.52;;;;;;;;;;5070748;28;20040;-72
2022/09/13 00:41:38;;;;;;;37.17;25.05;;;;;;;;;;5054252;28;20040;-72
2022/09/13 00:44:05;;;;;;;36.33;25.55;;;;;;;;;;5070202;28;20090;-72
2022/09/13 00:46:43;;;;;;;35.75;24.70;;;;;;;;;;5070634;28;20094;-72
2022/09/13 00:49:15;;;;;;;42.33;27.02;;;;;;;;;;5053896;28;20037;-72
2022/09/13 00:51:43;;;;;;;41.38;25.42;;;;;;;;;;5070521;28;20045;-72
2022/09/13 00:54:09;;;;;;;37.35;23.95;;;;;;;;;;5053920;28;20119;-72
2022/09/13 00:56:38;;;;;;;38.50;24.40;;;;;;;;;;5071738;28;20036;-72
2022/09/13 00:59:12;;;;;;;37.08;23.15;;;;;;;;;;5069799;28;20057;-71
2022/09/13 01:01:46;;;;;;;41.55;24.85;;;;;;;;;;5070889;28;20493;-72
2022/09/13 01:04:13;;;;;;;33.65;22.08;;;;;;;;;;5070623;28;20409;-72
2022/09/13 01:06:40;;;;;;;31.25;21.10;;;;;;;;;;5053740;28;20048;-72
2022/09/13 01:09:07;;;;;;;29.73;20.52;;;;;;;;;;5069287;28;20044;-73
2022/09/13 01:11:39;;;;;;;30.92;20.83;;;;;;;;;;5052059;28;20448;-73
2022/09/13 01:14:06;;;;;;;30.70;20.52;;;;;;;;;;5051556;28;20041;-73
2022/09/13 01:16:33;;;;;;;35.88;21.60;;;;;;;;;;5069503;28;20049;-72
2022/09/13 01:18:59;;;;;;;30.88;20.38;;;;;;;;;;5070219;28;20490;-72
2022/09/13 01:21:37;;;;;;;30.92;20.10;;;;;;;;;;5070321;28;20037;-72
2022/09/13 01:24:14;;;;;;;33.58;21.60;;;;;;;;;;5069932;28;20095;-72
2022/09/13 01:26:59;;;;;;;29.75;20.60;;;;;;;;;;5053520;28;20060;-71
2022/09/13 01:29:49;;;;;;;31.67;21.02;;;;;;;;;;5062560;28;20044;-72
2022/09/13 01:32:26;;;;;;;27.23;18.60;;;;;;;;;;5053414;28;20055;-71
2022/09/13 01:35:06;;;;;;;29.33;20.33;;;;;;;;;;5053460;28;20051;-72
2022/09/13 01:37:36;;;;;;;26.58;18.98;;;;;;;;;;5021115;28;20498;-71
2022/09/13 01:40:05;;;;;;;28.27;19.55;;;;;;;;;;5049217;28;20501;-72
2022/09/13 01:42:37;;;;;;;31.60;20.00;;;;;;;;;;5073996;28;20042;-72
2022/09/13 01:45:16;;;;;;;28.50;19.17;;;;;;;;;;5073657;28;20072;-72
2022/09/13 01:47:50;;;;;;;27.45;19.20;;;;;;;;;;5024331;28;20486;-72
2022/09/13 01:50:42;;;;;;;27.73;19.27;;;;;;;;;;5051082;28;20052;-72
2022/09/13 01:53:12;;;;;;;30.73;19.38;;;;;;;;;;5043731;28;20045;-72
2022/09/13 01:55:48;;;;;;;26.67;19.13;;;;;;;;;;5073555;28;20082;-72
2022/09/13 01:58:17;;;;;;;27.60;18.45;;;;;;;;;;5073002;28;20047;-71
2022/09/13 02:01:00;;;;;;;28.67;18.27;;;;;;;;;;5056739;28;20429;-72
2022/09/13 02:03:31;;;;;;;25.23;18.02;;;;;;;;;;5029188;28;20041;-72
2022/09/13 02:06:01;;;;;;;24.33;17.30;;;;;;;;;;5052072;28;20055;-72
2022/09/13 02:08:27;;;;;;;24.80;17.10;;;;;;;;;;5069478;28;20083;-72
2022/09/13 02:10:58;;;;;;;29.52;18.02;;;;;;;;;;5052915;28;20033;-72
2022/09/13 02:13:27;;;;;;;26.60;17.25;;;;;;;;;;5070012;28;20048;-72
2022/09/13 02:15:55;;;;;;;23.98;15.90;;;;;;;;;;5070125;28;20405;-73
2022/09/13 02:18:24;;;;;;;25.27;16.63;;;;;;;;;;5069816;28;20080;-73
2022/09/13 02:20:51;;;;;;;23.95;16.13;;;;;;;;;;5053406;28;20364;-73
2022/09/13 02:23:21;;;;;;;21.77;15.85;;;;;;;;;;5054010;28;20044;-73
2022/09/13 02:25:49;;;;;;;20.73;14.93;;;;;;;;;;5069856;28;20049;-73
2022/09/13 02:28:19;;;;;;;22.48;15.45;;;;;;;;;;5047908;28;20045;-73
2022/09/13 02:30:47;;;;;;;23.13;14.93;;;;;;;;;;5061199;28;20048;-73
2022/09/13 02:33:15;;;;;;;17.50;13.13;;;;;;;;;;5048322;28;20389;-73
2022/09/13 02:35:45;;;;;;;17.88;13.57;;;;;;;;;;5036501;28;20033;-74
2022/09/13 02:38:17;;;;;;;19.77;13.43;;;;;;;;;;5069335;28;20037;-73
2022/09/13 02:40:46;;;;;;;21.30;13.65;;;;;;;;;;5070413;28;20560;-74
2022/09/13 02:43:18;;;;;;;18.23;13.98;;;;;;;;;;5069580;28;20040;-74
2022/09/13 02:45:52;;;;;;;18.80;13.60;;;;;;;;;;5053045;28;20141;-73
2022/09/13 02:48:28;;;;;;;20.73;12.13;;;;;;;;;;5052549;28;20103;-74
2022/09/13 02:50:57;;;;;;;16.00;11.15;;;;;;;;;;5039176;28;20036;-73
2022/09/13 02:53:49;;;;;;;15.65;11.77;;;;;;;;;;5069675;28;20049;-73
2022/09/13 02:56:22;;;;;;;15.25;11.07;;;;;;;;;;5050245;28;20045;-73
2022/09/13 02:58:53;;;;;;;14.88;9.65;;;;;;;;;;5068936;28;20057;-73
2022/09/13 03:01:20;;;;;;;12.88;9.77;;;;;;;;;;5052450;28;20052;-73
2022/09/13 03:03:46;;;;;;;16.20;10.70;;;;;;;;;;5052660;28;20397;-73
2022/09/13 03:06:12;;;;;;;16.05;11.80;;;;;;;;;;5069250;28;20073;-73
2022/09/13 03:08:38;;;;;;;13.57;9.30;;;;;;;;;;5035700;28;20041;-73
2022/09/13 03:11:11;;;;;;;19.20;10.32;;;;;;;;;;5035523;28;20547;-73
2022/09/13 03:13:53;;;;;;;17.48;11.88;;;;;;;;;;5052470;28;20037;-73
2022/09/13 03:16:34;;;;;;;15.02;10.52;;;;;;;;;;5068823;28;20044;-73
2022/09/13 03:19:19;;;;;;;15.10;10.15;;;;;;;;;;5035269;28;20041;-73
2022/09/13 03:21:48;;;;;;;15.18;10.27;;;;;;;;;;5069227;28;20045;-73
2022/09/13 03:24:17;;;;;;;15.73;9.98;;;;;;;;;;5051944;28;20042;-73
2022/09/13 03:26:43;;;;;;;18.75;10.70;;;;;;;;;;5052183;28;20044;-72
2022/09/13 03:29:12;;;;;;;12.30;8.80;;;;;;;;;;5064624;28;20114;-73
2022/09/13 03:31:48;;;;;;;17.30;10.55;;;;;;;;;;5035413;28;20040;-73
2022/09/13 03:34:20;;;;;;;15.90;11.35;;;;;;;;;;5035460;28;20470;-73
2022/09/13 03:36:54;;;;;;;16.15;10.00;;;;;;;;;;5052263;28;20044;-73
2022/09/13 03:39:32;;;;;;;18.38;10.45;;;;;;;;;;5051860;28;20102;-72
2022/09/13 03:42:01;;;;;;;16.75;10.82;;;;;;;;;;5068275;28;20094;-71
2022/09/13 03:44:29;;;;;;;16.88;11.13;;;;;;;;;;5067788;28;20052;-73
2022/09/13 03:46:57;;;;;;;14.95;10.43;;;;;;;;;;5035038;28;20498;-72
2022/09/13 03:49:25;;;;;;;17.20;10.85;;;;;;;;;;5051503;28;20547;-74
2022/09/13 03:51:52;;;;;;;17.48;10.65;;;;;;;;;;5052748;28;20043;-73
2022/09/13 03:54:27;;;;;;;15.30;9.80;;;;;;;;;;5068131;28;20052;-74
2022/09/13 03:57:08;;;;;;;16.15;10.88;;;;;;;;;;5051824;28;20051;-73
2022/09/13 03:59:37;;;;;;;18.50;10.60;;;;;;;;;;5068011;28;20052;-73
2022/09/13 04:02:03;;;;;;;17.60;9.93;;;;;;;;;;5052197;28;20041;-73
2022/09/13 04:04:29;;;;;;;20.30;10.60;;;;;;;;;;5040193;28;20128;-74
2022/09/13 04:06:55;;;;;;;15.93;8.43;;;;;;;;;;5050745;28;20498;-74
2022/09/13 04:09:22;;;;;;;14.30;9.90;;;;;;;;;;5050890;28;20044;-74
2022/09/13 04:11:48;;;;;;;16.92;10.80;;;;;;;;;;5052604;28;20512;-74
2022/09/13 04:14:15;;;;;;;16.20;10.63;;;;;;;;;;5033059;28;20044;-73
2022/09/13 04:16:42;;;;;;;13.13;9.68;;;;;;;;;;5035444;28;20493;-73
2022/09/13 04:19:09;;;;;;;9.95;6.40;;;;;;;;;;5052929;28;20039;-73
2022/09/13 04:21:35;;;;;;;9.23;4.55;;;;;;;;;;5051687;28;20037;-73
2022/09/13 04:24:01;;;;;;;8.73;3.78;;;;;;;;;;5039503;28;20037;-74
2022/09/13 04:26:27;;;;;;;7.53;3.53;;;;;;;;;;5065739;28;20166;-73
2022/09/13 04:28:53;;;;;;;8.13;3.20;;;;;;;;;;5031107;28;20033;-74
2022/09/13 04:31:19;;;;;;;3.97;1.90;;;;;;;;;;5034325;28;20049;-74
2022/09/13 04:33:45;;;;;;;4.32;2.08;;;;;;;;;;5050153;28;20053;-73
2022/09/13 04:36:11;;;;;;;4.22;1.83;;;;;;;;;;5051003;28;20120;-74
2022/09/13 04:38:37;;;;;;;5.18;1.90;;;;;;;;;;5052562;28;20041;-73
2022/09/13 04:41:04;;;;;;;8.13;2.00;;;;;;;;;;5018010;28;20175;-73
2022/09/13 04:43:30;;;;;;;3.45;1.73;;;;;;;;;;5051149;28;20075;-73
2022/09/13 04:46:00;;;;;;;8.20;2.50;;;;;;;;;;5052478;28;20044;-73
2022/09/13 04:48:26;;;;;;;3.20;1.67;;;;;;;;;;5034599;28;20401;-74
2022/09/13 04:50:52;;;;;;;7.18;1.48;;;;;;;;;;5051297;28;20088;-73
2022/09/13 04:53:18;;;;;;;3.35;1.45;;;;;;;;;;5050813;28;20052;-71
2022/09/13 04:55:44;;;;;;;6.75;1.50;;;;;;;;;;5050632;28;20099;-72
2022/09/13 04:58:10;;;;;;;7.78;2.08;;;;;;;;;;5050433;28;20048;-71
2022/09/13 05:00:36;;;;;;;5.68;1.60;;;;;;;;;;5051588;28;20135;-71
2022/09/13 05:03:03;;;;;;;4.93;1.90;;;;;;;;;;5034150;28;20049;-71
2022/09/13 05:05:31;;;;;;;10.77;6.85;;;;;;;;;;5049960;28;20064;-72
2022/09/13 05:07:57;;;;;;;16.42;11.70;;;;;;;;;;5051699;28;20106;-71
2022/09/13 05:10:23;;;;;;;6.85;3.47;;;;;;;;;;5066716;28;20098;-71
2022/09/13 05:12:49;;;;;;;4.75;2.90;;;;;;;;;;5033960;28;20037;-72
2022/09/13 05:15:15;;;;;;;5.30;2.67;;;;;;;;;;5054519;28;20115;-71
2022/09/13 05:17:41;;;;;;;6.68;2.78;;;;;;;;;;5054720;28;20037;-71
2022/09/13 05:20:08;;;;;;;7.35;2.60;;;;;;;;;;5055712;28;20036;-71
2022/09/13 05:22:34;;;;;;;4.13;2.13;;;;;;;;;;5054125;28;20041;-71
2022/09/13 05:25:00;;;;;;;9.43;3.00;;;;;;;;;;5040523;28;20186;-71
2022/09/13 05:27:26;;;;;;;8.82;2.70;;;;;;;;;;5052597;28;20520;-71
2022/09/13 05:29:52;;;;;;;6.03;2.40;;;;;;;;;;5052269;28;20482;-71
2022/09/13 05:32:18;;;;;;;8.43;2.78;;;;;;;;;;5053651;28;20494;-71
2022/09/13 05:34:44;;;;;;;10.15;2.83;;;;;;;;;;5054036;28;20086;-71
2022/09/13 05:37:10;;;;;;;6.13;2.60;;;;;;;;;;5053999;28;20044;-72
2022/09/13 05:39:39;;;;;;;9.27;2.40;;;;;;;;;;5053715;28;20040;-71
2022/09/13 05:42:05;;;;;;;9.00;2.67;;;;;;;;;;5037657;28;20033;-71
2022/09/13 05:44:31;;;;;;;4.88;2.45;;;;;;;;;;5053932;28;20428;-72
2022/09/13 05:46:57;;;;;;;5.70;2.00;;;;;;;;;;5054027;28;20121;-72
2022/09/13 05:49:23;;;;;;;5.93;2.22;;;;;;;;;;5053641;28;20045;-72
2022/09/13 05:51:49;;;;;;;4.85;2.00;;;;;;;;;;5037195;28;20084;-72
2022/09/13 05:54:16;;;;;;;8.23;2.92;;;;;;;;;;5037436;28;20099;-71
2022/09/13 05:56:42;;;;;;;6.35;2.38;;;;;;;;;;5054999;28;20048;-71
2022/09/13 05:59:13;;;;;;;5.28;2.08;;;;;;;;;;5053729;28;20497;-72
2022/09/13 06:01:39;;;;;;;6.80;2.38;;;;;;;;;;5036841;28;20087;-71
2022/09/13 06:04:05;;;;;;;5.13;2.15;;;;;;;;;;5053729;28;20052;-71
2022/09/13 06:06:31;;;;;;;5.93;2.15;;;;;;;;;;5054157;28;20045;-72
2022/09/13 06:08:57;;;;;;;7.30;2.35;;;;;;;;;;5053979;28;20048;-72
2022/09/13 06:11:28;;;;;;;6.45;2.30;;;;;;;;;;5052935;28;20052;-72
2022/09/13 06:13:54;;;;;;;6.85;2.40;;;;;;;;;;5053512;28;20528;-72
2022/09/13 06:16:20;;;;;;;4.97;2.25;;;;;;;;;;5020106;28;20106;-72
2022/09/13 06:18:46;;;;;;;5.45;2.33;;;;;;;;;;5053416;28;20045;-72
2022/09/13 06:21:17;;;;;;;6.38;3.00;;;;;;;;;;5053338;28;20051;-72
2022/09/13 06:23:44;;;;;;;10.20;2.95;;;;;;;;;;5054479;28;20041;-72
2022/09/13 06:26:11;;;;;;;8.18;3.20;;;;;;;;;;5052513;28;20102;-71
2022/09/13 06:28:38;;;;;;;6.50;2.72;;;;;;;;;;5033183;28;20070;-74
2022/09/13 06:31:05;;;;;;;7.80;3.10;;;;;;;;;;5053654;28;20044;-74
2022/09/13 06:33:35;;;;;;;10.32;3.13;;;;;;;;;;5039937;28;20087;-73
2022/09/13 06:36:13;;;;;;;7.75;2.80;;;;;;;;;;5037381;28;20473;-74
2022/09/13 06:38:39;;;;;;;5.18;2.70;;;;;;;;;;5053496;28;20041;-74
2022/09/13 06:41:09;;;;;;;6.90;2.20;;;;;;;;;;5053496;28;20045;-75
2022/09/13 06:43:36;;;;;;;5.97;2.10;;;;;;;;;;5053314;28;20127;-74
2022/09/13 06:46:03;;;;;;;8.27;2.30;;;;;;;;;;5036968;28;20052;-74
2022/09/13 06:48:32;;;;;;;8.82;2.40;;;;;;;;;;5054669;28;20563;-74
2022/09/13 06:50:59;;;;;;;6.22;2.35;;;;;;;;;;5053410;28;20056;-74
2022/09/13 06:53:27;;;;;;;7.75;2.17;;;;;;;;;;5036013;28;20075;-72
2022/09/13 06:56:12;;;;;;;5.00;2.22;;;;;;;;;;5052855;28;20041;-72
2022/09/13 06:58:39;;;;;;;6.55;2.03;;;;;;;;;;5035662;28;20041;-74
2022/09/13 07:01:10;;;;;;;4.60;1.95;;;;;;;;;;5053482;28;20088;-74
2022/09/13 07:03:37;;;;;;;6.57;2.38;;;;;;;;;;5054843;28;20048;-74
2022/09/13 07:06:10;;;;;;;4.75;2.03;;;;;;;;;;5048437;28;20045;-74
2022/09/13 07:08:36;;;;;;;8.15;2.50;;;;;;;;;;5052963;28;20041;-74
2022/09/13 07:11:02;;;;;;;9.35;2.40;;;;;;;;;;5039248;28;20049;-74
2022/09/13 07:13:29;;;;;;;8.07;2.22;;;;;;;;;;5064072;28;20056;-74
2022/09/13 07:15:55;;;;;;;7.65;2.40;;;;;;;;;;5053052;28;20037;-74
2022/09/13 07:18:21;;;;;;;5.80;2.20;;;;;;;;;;5053025;28;20040;-74
2022/09/13 07:20:47;;;;;;;5.30;1.98;;;;;;;;;;5053123;28;20501;-74
2022/09/13 07:23:13;;;;;;;6.82;1.80;;;;;;;;;;5052727;28;20084;-74
2022/09/13 07:25:39;;;;;;;8.13;1.70;;;;;;;;;;5052729;28;20041;-74
2022/09/13 07:28:05;;;;;;;6.13;1.85;;;;;;;;;;5052725;28;20560;-75
2022/09/13 07:30:33;;;;;;;8.07;1.50;;;;;;;;;;5053984;28;20461;-74
2022/09/13 07:32:59;;;;;;;5.25;1.40;;;;;;;;;;5052428;28;20046;-74
2022/09/13 07:35:25;;;;;;;5.65;1.40;;;;;;;;;;5052490;28;20106;-75
2022/09/13 07:37:51;;;;;;;4.78;1.30;;;;;;;;;;5051525;28;20076;-75
2022/09/13 07:40:17;;;;;;;7.43;1.30;;;;;;;;;;5053739;28;20072;-75
2022/09/13 07:42:43;;;;;;;7.40;1.30;;;;;;;;;;5035764;28;20040;-75
2022/09/13 07:45:11;;;;;;;4.32;0.93;;;;;;;;;;5035697;28;20037;-72
2022/09/13 07:47:37;;;;;;;7.60;1.40;;;;;;;;;;5052696;28;20040;-71
2022/09/13 07:50:04;;;;;;;4.43;0.95;;;;;;;;;;5051798;28;20096;-71
2022/09/13 07:52:30;;;;;;;5.35;1.30;;;;;;;;;;5051645;28;20498;-75
2022/09/13 07:54:57;;;;;;;5.40;0.98;;;;;;;;;;5053933;28;20044;-75
2022/09/13 07:57:23;;;;;;;5.95;0.85;;;;;;;;;;5052396;28;20090;-75
2022/09/13 07:59:50;;;;;;;5.45;1.00;;;;;;;;;;5052386;28;20504;-74
2022/09/13 08:02:17;;;;;;;7.00;1.10;;;;;;;;;;5052414;28;20059;-72
2022/09/13 08:04:43;;;;;;;6.90;1.10;;;;;;;;;;5051330;28;20119;-71
2022/09/13 08:07:09;;;;;;;7.65;1.02;;;;;;;;;;5052583;28;20460;-71
2022/09/13 08:09:35;;;;;;;4.43;1.15;;;;;;;;;;5051081;28;20129;-70
2022/09/13 08:12:01;;;;;;;5.70;1.00;;;;;;;;;;5052494;28;20102;-71
2022/09/13 08:14:27;;;;;;;3.55;0.80;;;;;;;;;;5051261;28;20037;-72
2022/09/13 08:16:57;;;;;;;3.00;0.70;;;;;;;;;;5051159;28;20033;-72
2022/09/13 08:19:23;;;;;;;4.25;0.90;;;;;;;;;;5052232;28;20098;-72
2022/09/13 08:21:49;;;;;;;6.10;1.35;;;;;;;;;;5051177;28;20041;-70
2022/09/13 08:24:17;;;;;;;4.97;1.23;;;;;;;;;;5051464;28;20562;-72
2022/09/13 08:26:43;;;;;;;4.05;0.90;;;;;;;;;;5052336;28;20508;-72
2022/09/13 08:29:10;;;;;;;6.80;1.10;;;;;;;;;;5051104;28;20521;-71
2022/09/13 08:31:36;;;;;;;7.57;1.60;;;;;;;;;;5051042;28;20043;-73
2022/09/13 08:34:02;;;;;;;4.88;1.10;;;;;;;;;;5052052;28;20552;-71
2022/09/13 08:36:28;;;;;;;3.88;0.88;;;;;;;;;;5052026;28;20131;-72
2022/09/13 08:38:57;;;;;;;4.28;1.00;;;;;;;;;;5050819;28;20037;-72
2022/09/13 08:41:44;;;;;;;7.75;1.67;;;;;;;;;;5051169;28;20516;-72
2022/09/13 08:44:13;;;;;;;4.75;0.80;;;;;;;;;;5051141;28;20056;-75
2022/09/13 08:46:44;;;;;;;5.00;1.00;;;;;;;;;;5051794;28;20045;-75
2022/09/13 08:49:31;;;;;;;4.03;0.95;;;;;;;;;;5051156;28;20045;-76
2022/09/13 08:52:15;;;;;;;4.63;0.85;;;;;;;;;;5051198;28;20049;-76
2022/09/13 08:54:41;;;;;;;6.15;1.25;;;;;;;;;;5051506;28;20033;-75
2022/09/13 08:57:18;;;;;;;4.22;0.90;;;;;;;;;;5053107;28;20040;-76
2022/09/13 08:59:52;;;;;;;3.22;0.70;;;;;;;;;;5050793;28;20049;-77
2022/09/13 09:02:37;;;;;;;3.75;0.50;;;;;;;;;;5051493;28;20524;-77
2022/09/13 09:05:06;;;;;;;2.08;0.60;;;;;;;;;;5051854;28;20048;-76
2022/09/13 09:07:35;;;;;;;3.20;0.63;;;;;;;;;;5051479;28;20040;-77
2022/09/13 09:10:07;;;;;;;2.38;0.65;;;;;;;;;;5051201;28;20183;-77
2022/09/13 09:12:37;;;;;;;2.10;0.60;;;;;;;;;;5052534;28;20045;-77
2022/09/13 09:15:04;;;;;;;2.67;0.60;;;;;;;;;;5051628;28;20033;-75
2022/09/13 09:17:34;;;;;;;3.00;0.77;;;;;;;;;;5052810;28;20049;-75
2022/09/13 09:20:21;;;;;;;1.58;0.82;;;;;;;;;;5052730;28;20044;-76
2022/09/13 09:22:48;;;;;;;3.90;0.90;;;;;;;;;;5051585;28;20486;-76
2022/09/13 09:25:15;;;;;;;5.03;0.90;;;;;;;;;;5051028;28;20192;-76
2022/09/13 09:27:41;;;;;;;3.53;0.70;;;;;;;;;;5050870;28;20056;-76
2022/09/13 09:30:13;;;;;;;4.07;0.80;;;;;;;;;;5051041;28;20041;-76
2022/09/13 09:32:58;;;;;;;3.17;0.70;;;;;;;;;;5051154;28;20060;-77
2022/09/13 09:35:42;;;;;;;4.05;0.65;;;;;;;;;;5039943;28;20408;-76
2022/09/13 09:38:27;;;;;;;4.70;0.90;;;;;;;;;;5051205;28;20179;-77
2022/09/13 09:40:53;;;;;;;3.00;0.60;;;;;;;;;;5051746;28;20514;-77
2022/09/13 09:43:32;;;;;;;3.95;0.70;;;;;;;;;;5051594;28;20045;-77
2022/09/13 09:45:59;;;;;;;3.45;0.70;;;;;;;;;;5051220;28;20045;-77
2022/09/13 09:48:28;;;;;;;3.20;0.57;;;;;;;;;;5051983;28;20037;-77
2022/09/13 09:51:00;;;;;;;3.20;0.70;;;;;;;;;;5051145;28;20553;-77
2022/09/13 09:53:32;;;;;;;3.03;0.60;;;;;;;;;;5051188;28;20037;-77
2022/09/13 09:56:19;;;;;;;4.28;0.60;;;;;;;;;;5051117;28;20145;-77
2022/09/13 09:58:45;;;;;;;5.30;0.82;;;;;;;;;;5043440;28;20408;-72
2022/09/13 10:01:23;;;;;;;2.17;0.70;;;;;;;;;;5052156;28;20446;-71
2022/09/13 10:04:13;;;;;;;2.92;0.80;;;;;;;;;;5053491;28;20048;-71
2022/09/13 10:06:40;;;;;;;3.13;0.50;;;;;;;;;;5048562;28;20168;-71
2022/09/13 10:09:18;;;;;;;6.18;0.82;;;;;;;;;;5053256;28;20041;-72
2022/09/13 10:11:50;;;;;;;2.38;0.60;;;;;;;;;;5053490;28;20051;-72
2022/09/13 10:14:36;;;;;;;2.72;0.70;;;;;;;;;;5054621;28;20045;-71
2022/09/13 10:17:06;;;;;;;3.15;0.88;;;;;;;;;;5053526;28;20037;-73
2022/09/13 10:19:32;;;;;;;3.30;0.60;;;;;;;;;;5054675;28;20052;-73
2022/09/13 10:22:01;;;;;;;2.53;0.65;;;;;;;;;;5053324;28;20041;-72
2022/09/13 10:24:29;;;;;;;3.78;0.60;;;;;;;;;;5053455;28;20049;-71
2022/09/13 10:26:55;;;;;;;3.83;0.77;;;;;;;;;;5053236;28;20124;-72
2022/09/13 10:29:21;;;;;;;3.22;0.60;;;;;;;;;;5033247;28;20124;-76
2022/09/13 10:31:49;;;;;;;2.40;0.68;;;;;;;;;;5039686;28;20045;-77
2022/09/13 10:34:15;;;;;;;3.88;0.70;;;;;;;;;;5036925;28;20037;-77
2022/09/13 10:36:51;;;;;;;3.53;0.65;;;;;;;;;;5053015;28;20041;-76
2022/09/13 10:39:20;;;;;;;2.35;0.60;;;;;;;;;;5036803;28;20048;-76
2022/09/13 10:41:49;;;;;;;3.03;0.80;;;;;;;;;;5053122;28;20056;-78
2022/09/13 10:44:38;;;;;;;3.42;0.85;;;;;;;;;;5053410;28;20049;-76
2022/09/13 10:47:05;;;;;;;3.10;0.73;;;;;;;;;;5036405;28;20124;-76
2022/09/13 10:49:36;;;;;;;3.42;0.70;;;;;;;;;;5054898;28;20056;-76
2022/09/13 10:52:22;;;;;;;2.92;0.75;;;;;;;;;;5054266;28;20516;-77
2022/09/13 10:54:48;;;;;;;4.53;0.85;;;;;;;;;;5053630;28;20382;-79
2022/09/13 10:57:33;;;;;;;3.28;0.68;;;;;;;;;;5070388;28;20045;-77
2022/09/13 11:00:00;;;;;;;2.88;0.70;;;;;;;;;;5052588;28;20052;-76
2022/09/13 11:02:34;;;;;;;4.43;0.90;;;;;;;;;;5053145;28;20064;-77
2022/09/13 11:05:09;;;;;;;3.17;0.70;;;;;;;;;;5054406;28;20568;-77
2022/09/13 11:07:38;;;;;;;2.85;0.60;;;;;;;;;;5053350;28;20072;-77
2022/09/13 11:10:19;;;;;;;5.35;0.85;;;;;;;;;;5053252;28;20098;-76
2022/09/13 11:13:01;;;;;;;2.95;0.70;;;;;;;;;;5067538;28;20041;-77
2022/09/13 11:15:46;;;;;;;5.05;0.80;;;;;;;;;;5053474;28;20558;-76
2022/09/13 11:18:15;;;;;;;7.80;1.00;;;;;;;;;;5054043;28;20110;-76
2022/09/13 11:20:50;;;;;;;5.40;1.00;;;;;;;;;;5053076;28;20045;-76
2022/09/13 11:23:35;;;;;;;4.35;0.80;;;;;;;;;;5052515;28;20490;-76
2022/09/13 11:26:01;;;;;;;4.07;0.73;;;;;;;;;;5052071;28;20045;-76
2022/09/13 11:28:33;;;;;;;3.75;0.65;;;;;;;;;;5050367;28;20049;-76
2022/09/13 11:31:11;;;;;;;6.20;1.00;;;;;;;;;;5051620;28;20051;-76
2022/09/13 11:33:37;;;;;;;4.32;0.75;;;;;;;;;;5056420;28;20509;-71
2022/09/13 11:36:16;;;;;;;6.07;0.90;;;;;;;;;;5035247;28;20044;-76
2022/09/13 11:39:09;;;;;;;4.93;0.90;;;;;;;;;;5052362;28;20043;-76
2022/09/13 11:41:47;;;;;;;3.85;0.88;;;;;;;;;;5053569;28;20032;-77
2022/09/13 11:44:16;;;;;;;4.22;0.85;;;;;;;;;;5052064;28;20056;-76
2022/09/13 11:46:50;;;;;;;7.63;0.90;;;;;;;;;;5052033;28;20127;-76
2022/09/13 11:49:22;;;;;;;3.83;0.70;;;;;;;;;;5051886;28;20510;-76
2022/09/13 11:51:58;;;;;;;2.65;0.63;;;;;;;;;;5051635;28;20052;-76
2022/09/13 11:54:36;;;;;;;4.13;0.65;;;;;;;;;;5053181;28;20068;-70
2022/09/13 11:57:14;;;;;;;4.60;0.70;;;;;;;;;;5051020;28;20040;-70
2022/09/13 11:59:49;;;;;;;3.45;0.80;;;;;;;;;;5051300;28;20119;-70
2022/09/13 12:02:26;;;;;;;4.43;0.95;;;;;;;;;;5034677;28;20041;-70
2022/09/13 12:04:55;;;;;;;4.13;0.88;;;;;;;;;;5051664;28;20041;-70
2022/09/13 12:07:36;;;;;;;3.55;0.70;;;;;;;;;;5051180;28;20067;-76
2022/09/13 12:10:13;;;;;;;5.18;0.70;;;;;;;;;;5039134;28;20532;-77
2022/09/13 12:12:40;;;;;;;3.70;0.70;;;;;;;;;;5047790;28;20489;-77
2022/09/13 12:15:13;;;;;;;5.55;0.65;;;;;;;;;;5051767;28;20489;-76
2022/09/13 12:17:48;;;;;;;5.03;0.93;;;;;;;;;;5035060;28;20486;-77
2022/09/13 12:20:24;;;;;;;6.35;0.82;;;;;;;;;;5051485;28;20109;-77
2022/09/13 12:22:50;;;;;;;5.72;0.95;;;;;;;;;;5050442;28;20053;-77
2022/09/13 12:25:22;;;;;;;3.80;0.70;;;;;;;;;;5052702;28;20101;-77
2022/09/13 12:27:52;;;;;;;4.50;0.90;;;;;;;;;;5047430;28;20048;-70
2022/09/13 12:30:23;;;;;;;3.13;0.68;;;;;;;;;;5050549;28;20045;-71
2022/09/13 12:32:51;;;;;;;3.88;0.90;;;;;;;;;;5050946;28;20068;-70
2022/09/13 12:35:30;;;;;;;7.20;0.90;;;;;;;;;;5050967;28;20064;-71
2022/09/13 12:38:08;;;;;;;2.75;0.60;;;;;;;;;;5050515;28;20049;-71
2022/09/13 12:40:39;;;;;;;4.45;0.80;;;;;;;;;;5050851;28;20037;-70
2022/09/13 12:43:11;;;;;;;4.63;0.70;;;;;;;;;;5050633;28;20036;-71
2022/09/13 12:45:37;;;;;;;5.43;0.70;;;;;;;;;;5050847;28;20051;-71
2022/09/13 12:48:20;;;;;;;3.28;0.77;;;;;;;;;;5050948;28;20041;-71
2022/09/13 12:50:49;;;;;;;4.10;0.90;;;;;;;;;;5034084;28;20048;-70
2022/09/13 12:53:27;;;;;;;6.43;0.93;;;;;;;;;;5050417;28;20487;-71
2022/09/13 12:56:02;;;;;;;4.18;0.85;;;;;;;;;;5052029;28;20033;-71
2022/09/13 12:58:49;;;;;;;2.55;0.73;;;;;;;;;;5050170;28;20517;-70
2022/09/13 13:01:21;;;;;;;4.65;1.00;;;;;;;;;;5051243;28;20053;-71
2022/09/13 13:03:54;;;;;;;4.82;0.90;;;;;;;;;;5050685;28;20570;-71
2022/09/13 13:06:35;;;;;;;2.70;0.70;;;;;;;;;;5050189;28;20140;-70
2022/09/13 13:09:07;;;;;;;3.72;0.77;;;;;;;;;;5050446;28;20040;-71
2022/09/13 13:11:44;;;;;;;3.97;0.80;;;;;;;;;;5051232;28;20131;-71
2022/09/13 13:14:27;;;;;;;5.47;0.85;;;;;;;;;;5050349;28;20049;-72
2022/09/13 13:16:53;;;;;;;5.60;0.80;;;;;;;;;;5050618;28;20037;-72
2022/09/13 13:19:32;;;;;;;4.13;0.70;;;;;;;;;;5049852;28;20112;-70
2022/09/13 13:22:17;;;;;;;5.72;0.68;;;;;;;;;;5050431;28;20049;-72
2022/09/13 13:24:45;;;;;;;4.40;0.70;;;;;;;;;;5051738;28;20394;-71
2022/09/13 13:27:34;;;;;;;4.57;0.90;;;;;;;;;;5034076;28;20073;-71
2022/09/13 13:30:19;;;;;;;6.50;0.77;;;;;;;;;;5066247;28;20049;-71
2022/09/13 13:33:03;;;;;;;5.47;1.55;;;;;;;;;;5034006;28;20466;-70
2022/09/13 13:35:31;;;;;;;6.17;1.00;;;;;;;;;;5034873;28;20045;-71
2022/09/13 13:38:13;;;;;;;4.90;0.77;;;;;;;;;;5055124;28;20044;-71
2022/09/13 13:40:39;;;;;;;2.92;0.70;;;;;;;;;;5055474;28;20045;-71
2022/09/13 13:43:16;;;;;;;4.38;0.80;;;;;;;;;;5054044;28;20045;-71
2022/09/13 13:45:56;;;;;;;7.78;1.40;;;;;;;;;;5054369;28;20055;-70
2022/09/13 13:48:38;;;;;;;3.22;0.80;;;;;;;;;;5037152;28;20060;-71
2022/09/13 13:51:11;;;;;;;8.30;0.95;;;;;;;;;;5053839;28;20041;-70
2022/09/13 13:53:37;;;;;;;5.57;0.90;;;;;;;;;;5036680;28;20079;-72
2022/09/13 13:56:24;;;;;;;6.53;0.90;;;;;;;;;;5053902;28;20037;-70
2022/09/13 13:58:56;;;;;;;7.20;0.90;;;;;;;;;;5053599;28;20094;-72
2022/09/13 14:01:24;;;;;;;5.47;1.00;;;;;;;;;;5054518;28;20080;-70
2022/09/13 14:04:09;;;;;;;5.53;0.95;;;;;;;;;;5054738;28;20041;-69
2022/09/13 14:06:48;;;;;;;7.93;0.93;;;;;;;;;;5054592;28;20029;-70
2022/09/13 14:09:25;;;;;;;7.00;1.17;;;;;;;;;;5036990;28;20060;-70
2022/09/13 14:11:54;;;;;;;5.53;1.00;;;;;;;;;;5037026;28;20115;-75
2022/09/13 14:14:38;;;;;;;6.75;1.45;;;;;;;;;;5055569;28;20041;-74
2022/09/13 14:17:29;;;;;;;6.20;0.90;;;;;;;;;;5054632;28;20037;-74
2022/09/13 14:19:59;;;;;;;7.05;1.10;;;;;;;;;;5053998;28;20044;-74
2022/09/13 14:22:26;;;;;;;12.20;1.30;;;;;;;;;;5053970;28;20052;-75
2022/09/13 14:24:53;;;;;;;5.53;1.10;;;;;;;;;;5053749;28;20195;-75
2022/09/13 14:27:30;;;;;;;6.10;0.95;;;;;;;;;;5053040;28;20045;-74
2022/09/13 14:29:58;;;;;;;5.22;0.93;;;;;;;;;;5053353;28;20116;-75
2022/09/13 14:32:29;;;;;;;7.05;1.20;;;;;;;;;;5036632;28;20073;-75
2022/09/13 14:35:00;;;;;;;6.47;1.20;;;;;;;;;;5053630;28;20040;-75
2022/09/13 14:37:32;;;;;;;7.15;0.98;;;;;;;;;;5053224;28;20037;-75
2022/09/13 14:40:00;;;;;;;6.60;0.98;;;;;;;;;;5053587;28;20370;-76
2022/09/13 14:42:26;;;;;;;6.82;0.88;;;;;;;;;;5054622;28;20045;-75
2022/09/13 14:44:52;;;;;;;4.82;1.10;;;;;;;;;;5054565;28;20041;-75
2022/09/13 14:47:22;;;;;;;7.30;1.00;;;;;;;;;;5052896;28;20041;-75
2022/09/13 14:49:55;;;;;;;7.00;0.93;;;;;;;;;;5053292;28;20463;-76
2022/09/13 14:52:28;;;;;;;4.53;0.80;;;;;;;;;;5053427;28;20041;-75
2022/09/13 14:54:57;;;;;;;6.35;1.20;;;;;;;;;;5054274;28;20398;-74
2022/09/13 14:57:27;;;;;;;3.90;0.85;;;;;;;;;;5054524;28;20044;-75